createdAt,value
2023-03-21T00:00:14.790Z,1012.29
2023-03-21T00:01:12.837Z,1012.28
2023-03-21T00:02:12.834Z,1012.22
2023-03-21T00:03:12.927Z,1012.22
2023-03-21T00:04:13.822Z,1012.20
2023-03-21T00:05:15.903Z,1012.21
2023-03-21T00:06:12.755Z,1012.19
2023-03-21T00:07:12.741Z,1012.20
2023-03-21T00:08:13.684Z,1012.19
2023-03-21T00:09:12.852Z,1012.21
2023-03-21T00:10:18.103Z,1012.20
2023-03-21T00:11:13.724Z,1012.17
2023-03-21T00:12:12.682Z,1012.16
2023-03-21T00:13:12.663Z,1012.18
2023-03-21T00:14:13.608Z,1012.17
2023-03-21T00:15:12.682Z,1012.25
2023-03-21T00:16:18.718Z,1012.19
2023-03-21T00:17:13.641Z,1012.17
2023-03-21T00:18:12.594Z,1012.17
2023-03-21T00:19:12.588Z,1012.16
2023-03-21T00:20:12.564Z,1012.15
2023-03-21T00:22:13.546Z,1012.11
2023-03-21T00:23:12.536Z,1012.16
2023-03-21T00:24:12.518Z,1012.14
2023-03-21T00:25:12.516Z,1012.08
2023-03-21T00:26:12.489Z,1012.13
2023-03-21T00:28:14.428Z,1012.05
2023-03-21T00:29:12.459Z,1012.04
2023-03-21T00:30:12.441Z,1012.10
2023-03-21T00:31:12.443Z,1012.10
2023-03-21T00:32:12.425Z,1012.10
2023-03-21T00:35:51.244Z,1012.10
2023-03-21T00:36:13.414Z,1012.08
2023-03-21T00:37:12.360Z,1012.02
2023-03-21T00:38:12.339Z,1012.02
2023-03-21T00:39:12.359Z,1012.04
2023-03-21T00:40:22.925Z,1012.02
2023-03-21T00:41:35.151Z,1012.04
2023-03-21T00:42:13.294Z,1011.99
2023-03-21T00:43:12.283Z,1011.98
2023-03-21T00:44:12.256Z,1011.97
2023-03-21T00:45:12.276Z,1011.99
2023-03-21T00:46:12.270Z,1012.00
2023-03-21T00:47:12.261Z,1011.97
2023-03-21T00:48:12.279Z,1011.97
2023-03-21T00:49:12.198Z,1011.97
2023-03-21T00:50:12.181Z,1011.98
2023-03-21T00:51:12.318Z,1011.98
2023-03-21T00:52:18.718Z,1011.95
2023-03-21T00:53:13.150Z,1011.94
2023-03-21T00:54:12.179Z,1011.90
2023-03-21T00:55:12.120Z,1011.91
2023-03-21T00:56:12.106Z,1011.90
2023-03-21T00:57:12.135Z,1011.91
2023-03-21T00:58:12.081Z,1011.91
2023-03-21T00:59:12.072Z,1011.86
2023-03-21T01:00:12.066Z,1011.89
2023-03-21T01:01:12.088Z,1011.88
2023-03-21T01:02:12.048Z,1011.87
2023-03-21T01:03:23.845Z,1011.85
2023-03-21T01:04:13.954Z,1011.86
2023-03-21T01:05:11.993Z,1011.82
2023-03-21T01:06:11.981Z,1011.86
2023-03-21T01:07:11.961Z,1011.85
2023-03-21T01:08:25.068Z,1011.84
2023-03-21T01:09:13.026Z,1011.78
2023-03-21T01:10:11.930Z,1011.87
2023-03-21T01:11:11.924Z,1011.79
2023-03-21T01:12:11.895Z,1011.76
2023-03-21T01:13:11.889Z,1011.78
2023-03-21T01:14:22.027Z,1011.76
2023-03-21T01:15:12.888Z,1011.71
2023-03-21T01:16:12.865Z,1011.71
2023-03-21T01:17:11.829Z,1011.75
2023-03-21T01:18:11.820Z,1011.72
2023-03-21T01:19:22.084Z,1011.77
2023-03-21T01:20:12.811Z,1011.70
2023-03-21T01:21:11.817Z,1011.70
2023-03-21T01:22:11.769Z,1011.70
2023-03-21T01:23:11.756Z,1011.68
2023-03-21T01:24:11.748Z,1011.63
2023-03-21T01:25:21.922Z,1011.66
2023-03-21T01:26:12.765Z,1011.68
2023-03-21T01:27:11.705Z,1011.69
2023-03-21T01:28:11.704Z,1011.68
2023-03-21T01:29:11.678Z,1011.69
2023-03-21T01:30:20.304Z,1011.65
2023-03-21T01:31:12.697Z,1011.68
2023-03-21T01:32:11.757Z,1011.68
2023-03-21T01:33:11.624Z,1011.64
2023-03-21T01:34:11.617Z,1011.64
2023-03-21T01:35:11.609Z,1011.59
2023-03-21T01:36:13.477Z,1011.63
2023-03-21T01:37:11.613Z,1011.59
2023-03-21T01:38:11.575Z,1011.57
2023-03-21T01:39:11.589Z,1011.59
2023-03-21T01:40:11.547Z,1011.55
2023-03-21T01:41:19.459Z,1011.57
2023-03-21T01:42:12.529Z,1011.57
2023-03-21T01:43:11.490Z,1011.55
2023-03-21T01:44:11.517Z,1011.48
2023-03-21T01:45:11.475Z,1011.51
2023-03-21T01:46:11.505Z,1011.51
2023-03-21T01:47:12.769Z,1011.49
2023-03-21T01:48:11.468Z,1011.50
2023-03-21T01:49:11.421Z,1011.53
2023-03-21T01:50:11.519Z,1011.52
2023-03-21T01:51:12.364Z,1011.52
2023-03-21T01:52:21.029Z,1011.50
2023-03-21T01:53:12.361Z,1011.49
2023-03-21T01:54:11.366Z,1011.50
2023-03-21T01:55:11.332Z,1011.44
2023-03-21T01:56:11.445Z,1011.54
2023-03-21T01:57:11.319Z,1011.50
2023-03-21T01:58:11.323Z,1011.49
2023-03-21T01:59:11.292Z,1011.47
2023-03-21T02:00:11.280Z,1011.49
2023-03-21T02:01:11.293Z,1011.44
2023-03-21T02:02:11.292Z,1011.45
2023-03-21T02:03:16.951Z,1011.43
2023-03-21T02:04:12.260Z,1011.49
2023-03-21T02:05:11.205Z,1011.41
2023-03-21T02:06:11.203Z,1011.37
2023-03-21T02:07:11.196Z,1011.39
2023-03-21T02:08:11.207Z,1011.33
2023-03-21T02:09:11.175Z,1011.39
2023-03-21T02:10:11.156Z,1011.35
2023-03-21T02:11:11.132Z,1011.30
2023-03-21T02:12:11.153Z,1011.32
2023-03-21T02:13:11.110Z,1011.33
2023-03-21T02:14:13.262Z,1011.28
2023-03-21T02:15:12.042Z,1011.28
2023-03-21T02:16:11.090Z,1011.29
2023-03-21T02:17:11.052Z,1011.27
2023-03-21T02:18:11.042Z,1011.23
2023-03-21T02:19:12.609Z,1011.25
2023-03-21T02:20:11.062Z,1011.26
2023-03-21T02:21:11.014Z,1011.21
2023-03-21T02:22:11.007Z,1011.24
2023-03-21T02:23:11.011Z,1011.22
2023-03-21T02:24:10.973Z,1011.19
2023-03-21T02:25:21.231Z,1011.24
2023-03-21T02:26:12.065Z,1011.18
2023-03-21T02:27:11.886Z,1011.11
2023-03-21T02:28:10.931Z,1011.11
2023-03-21T02:29:10.896Z,1011.14
2023-03-21T02:30:13.068Z,1011.12
2023-03-21T02:31:11.922Z,1011.09
2023-03-21T02:32:20.514Z,1011.09
2023-03-21T02:33:11.850Z,1011.12
2023-03-21T02:34:10.841Z,1011.16
2023-03-21T02:35:10.811Z,1011.12
2023-03-21T02:36:14.381Z,1011.15
2023-03-21T02:37:10.796Z,1011.11
2023-03-21T02:38:10.892Z,1011.18
2023-03-21T02:39:10.763Z,1011.21
2023-03-21T02:40:10.785Z,1011.12
2023-03-21T02:41:18.172Z,1011.11
2023-03-21T02:42:11.754Z,1011.15
2023-03-21T02:43:20.798Z,1011.12
2023-03-21T02:44:11.811Z,1011.09
2023-03-21T02:45:10.691Z,1011.16
2023-03-21T02:46:10.711Z,1011.09
2023-03-21T02:47:10.725Z,1011.09
2023-03-21T02:48:20.319Z,1011.13
2023-03-21T02:49:11.645Z,1011.10
2023-03-21T02:50:10.658Z,1011.12
2023-03-21T02:51:10.618Z,1011.09
2023-03-21T02:52:17.069Z,1011.09
2023-03-21T02:53:11.595Z,1011.06
2023-03-21T02:54:29.928Z,1011.06
2023-03-21T02:55:11.592Z,1011.06
2023-03-21T02:56:10.554Z,1011.06
2023-03-21T02:57:10.536Z,1011.02
2023-03-21T02:58:13.442Z,1011.03
2023-03-21T02:59:10.538Z,1011.06
2023-03-21T03:00:16.254Z,1011.06
2023-03-21T03:01:11.569Z,1011.01
2023-03-21T03:02:10.482Z,1011.04
2023-03-21T03:03:15.869Z,1011.04
2023-03-21T03:04:11.474Z,1011.07
2023-03-21T03:05:20.358Z,1011.01
2023-03-21T03:06:11.418Z,1010.99
2023-03-21T03:07:10.428Z,1010.99
2023-03-21T03:08:10.399Z,1011.00
2023-03-21T03:09:10.386Z,1010.97
2023-03-21T03:10:10.370Z,1010.93
2023-03-21T03:11:10.360Z,1010.97
2023-03-21T03:12:10.343Z,1010.93
2023-03-21T03:13:10.363Z,1010.94
2023-03-21T03:14:31.489Z,1010.96
2023-03-21T03:15:11.304Z,1010.95
2023-03-21T03:16:10.437Z,1011.00
2023-03-21T03:17:10.274Z,1010.96
2023-03-21T03:18:10.294Z,1010.98
2023-03-21T03:19:10.366Z,1010.98
2023-03-21T03:20:16.137Z,1010.97
2023-03-21T03:21:11.233Z,1010.98
2023-03-21T03:22:10.284Z,1011.02
2023-03-21T03:23:10.243Z,1011.00
2023-03-21T03:24:11.151Z,1010.94
2023-03-21T03:25:21.386Z,1010.98
2023-03-21T03:26:11.167Z,1011.00
2023-03-21T03:27:10.147Z,1010.97
2023-03-21T03:28:11.131Z,1011.04
2023-03-21T03:29:10.117Z,1010.99
2023-03-21T03:30:10.248Z,1010.97
2023-03-21T03:31:10.674Z,1010.95
2023-03-21T03:32:10.139Z,1011.00
2023-03-21T03:33:10.071Z,1010.89
2023-03-21T03:34:10.060Z,1010.91
2023-03-21T03:35:10.044Z,1010.92
2023-03-21T03:36:12.774Z,1010.91
2023-03-21T03:37:11.038Z,1010.83
2023-03-21T03:38:10.015Z,1010.85
2023-03-21T03:39:09.990Z,1010.84
2023-03-21T03:40:09.988Z,1010.83
2023-03-21T03:41:09.971Z,1010.85
2023-03-21T03:42:25.471Z,1010.86
2023-03-21T03:43:11.052Z,1010.85
2023-03-21T03:44:09.930Z,1010.90
2023-03-21T03:45:09.916Z,1010.86
2023-03-21T03:46:09.916Z,1010.89
2023-03-21T03:47:15.143Z,1010.89
2023-03-21T03:48:10.903Z,1010.84
2023-03-21T03:49:09.912Z,1010.82
2023-03-21T03:50:09.883Z,1010.90
2023-03-21T03:51:09.838Z,1010.85
2023-03-21T03:52:09.825Z,1010.87
2023-03-21T03:53:18.067Z,1010.79
2023-03-21T03:54:10.916Z,1010.82
2023-03-21T03:55:09.781Z,1010.77
2023-03-21T03:56:09.784Z,1010.83
2023-03-21T03:57:09.775Z,1010.79
2023-03-21T03:58:21.346Z,1010.86
2023-03-21T03:59:10.729Z,1010.79
2023-03-21T04:00:09.845Z,1010.76
2023-03-21T04:01:09.725Z,1010.81
2023-03-21T04:02:09.804Z,1010.83
2023-03-21T04:03:09.804Z,1010.81
2023-03-21T04:04:13.189Z,1010.83
2023-03-21T04:05:09.665Z,1010.77
2023-03-21T04:06:09.788Z,1010.79
2023-03-21T04:07:09.638Z,1010.77
2023-03-21T04:08:09.618Z,1010.84
2023-03-21T04:09:19.173Z,1010.82
2023-03-21T04:10:10.595Z,1010.79
2023-03-21T04:11:09.594Z,1010.81
2023-03-21T04:12:09.597Z,1010.75
2023-03-21T04:13:09.581Z,1010.74
2023-03-21T04:14:09.548Z,1010.80
2023-03-21T04:15:11.092Z,1010.71
2023-03-21T04:16:09.551Z,1010.67
2023-03-21T04:17:09.511Z,1010.71
2023-03-21T04:18:09.520Z,1010.65
2023-03-21T04:19:09.480Z,1010.66
2023-03-21T04:20:13.054Z,1010.60
2023-03-21T04:21:10.512Z,1010.71
2023-03-21T04:22:09.446Z,1010.65
2023-03-21T04:23:09.437Z,1010.65
2023-03-21T04:24:09.515Z,1010.64
2023-03-21T04:25:09.404Z,1010.69
2023-03-21T04:26:09.387Z,1010.65
2023-03-21T04:27:09.381Z,1010.66
2023-03-21T04:28:09.375Z,1010.70
2023-03-21T04:29:09.349Z,1010.64
2023-03-21T04:30:09.423Z,1010.62
2023-03-21T04:31:24.210Z,1010.67
2023-03-21T04:32:10.389Z,1010.68
2023-03-21T04:33:09.301Z,1010.70
2023-03-21T04:34:09.286Z,1010.62
2023-03-21T04:35:09.268Z,1010.61
2023-03-21T04:36:09.521Z,1010.66
2023-03-21T04:37:09.245Z,1010.60
2023-03-21T04:38:09.237Z,1010.59
2023-03-21T04:39:09.211Z,1010.61
2023-03-21T04:40:09.203Z,1010.64
2023-03-21T04:41:09.212Z,1010.61
2023-03-21T04:42:10.268Z,1010.62
2023-03-21T04:43:09.162Z,1010.56
2023-03-21T04:44:09.153Z,1010.53
2023-03-21T04:45:09.142Z,1010.55
2023-03-21T04:46:09.178Z,1010.53
2023-03-21T04:47:09.103Z,1010.49
2023-03-21T04:48:09.246Z,1010.48
2023-03-21T04:49:09.100Z,1010.47
2023-03-21T04:50:09.073Z,1010.49
2023-03-21T04:51:09.064Z,1010.48
2023-03-21T04:52:09.045Z,1010.46
2023-03-21T04:53:09.043Z,1010.42
2023-03-21T04:54:47.514Z,1010.43
2023-03-21T04:55:49.031Z,1010.44
2023-03-21T04:56:47.478Z,1010.41
2023-03-21T04:57:47.463Z,1010.44
2023-03-21T04:58:47.454Z,1010.39
2023-03-21T04:59:47.499Z,1010.38
2023-03-21T05:00:47.450Z,1010.37
2023-03-21T05:01:47.436Z,1010.42
2023-03-21T05:02:47.401Z,1010.38
2023-03-21T05:03:47.439Z,1010.40
2023-03-21T05:04:47.379Z,1010.36
2023-03-21T05:05:48.382Z,1010.39
2023-03-21T05:06:47.351Z,1010.35
2023-03-21T05:07:47.331Z,1010.34
2023-03-21T05:08:47.321Z,1010.36
2023-03-21T05:09:47.304Z,1010.45
2023-03-21T05:10:47.299Z,1010.37
2023-03-21T05:11:48.332Z,1010.37
2023-03-21T05:12:47.273Z,1010.36
2023-03-21T05:13:47.261Z,1010.39
2023-03-21T05:14:47.246Z,1010.38
2023-03-21T05:15:47.233Z,1010.44
2023-03-21T05:16:47.253Z,1010.39
2023-03-21T05:17:47.321Z,1010.43
2023-03-21T05:18:47.196Z,1010.41
2023-03-21T05:19:47.181Z,1010.44
2023-03-21T05:20:47.177Z,1010.43
2023-03-21T05:21:47.147Z,1010.37
2023-03-21T05:22:47.149Z,1010.41
2023-03-21T05:23:47.248Z,1010.39
2023-03-21T05:24:47.117Z,1010.39
2023-03-21T05:25:47.104Z,1010.40
2023-03-21T05:26:47.090Z,1010.39
2023-03-21T05:27:47.070Z,1010.41
2023-03-21T05:28:47.068Z,1010.43
2023-03-21T05:29:47.068Z,1010.44
2023-03-21T05:30:47.126Z,1010.41
2023-03-21T05:31:47.023Z,1010.39
2023-03-21T05:32:47.010Z,1010.41
2023-03-21T05:33:47.001Z,1010.34
2023-03-21T05:34:47.006Z,1010.35
2023-03-21T05:35:46.990Z,1010.32
2023-03-21T05:36:46.966Z,1010.34
2023-03-21T05:37:46.943Z,1010.32
2023-03-21T05:38:46.939Z,1010.36
2023-03-21T05:39:46.924Z,1010.32
2023-03-21T05:40:46.912Z,1010.31
2023-03-21T05:41:46.924Z,1010.31
2023-03-21T05:42:46.885Z,1010.32
2023-03-21T05:43:46.875Z,1010.33
2023-03-21T05:44:46.870Z,1010.31
2023-03-21T05:45:46.879Z,1010.27
2023-03-21T05:46:46.827Z,1010.28
2023-03-21T05:47:46.841Z,1010.34
2023-03-21T05:48:47.761Z,1010.32
2023-03-21T05:49:46.787Z,1010.28
2023-03-21T05:50:46.789Z,1010.28
2023-03-21T05:51:46.764Z,1010.29
2023-03-21T05:52:46.761Z,1010.23
2023-03-21T05:53:46.857Z,1010.32
2023-03-21T05:54:46.732Z,1010.33
2023-03-21T05:55:46.703Z,1010.32
2023-03-21T05:56:46.701Z,1010.27
2023-03-21T05:57:46.700Z,1010.33
2023-03-21T05:58:46.690Z,1010.32
2023-03-21T05:59:46.777Z,1010.29
2023-03-21T06:00:46.673Z,1010.32
2023-03-21T06:01:46.635Z,1010.28
2023-03-21T06:02:46.696Z,1010.25
2023-03-21T06:03:46.669Z,1010.26
2023-03-21T06:04:46.604Z,1010.31
2023-03-21T06:05:46.606Z,1010.30
2023-03-21T06:06:46.576Z,1010.32
2023-03-21T06:07:46.558Z,1010.32
2023-03-21T06:08:46.555Z,1010.31
2023-03-21T06:09:46.530Z,1010.35
2023-03-21T06:10:46.518Z,1010.36
2023-03-21T06:11:46.543Z,1010.30
2023-03-21T06:12:46.495Z,1010.44
2023-03-21T06:13:46.481Z,1010.40
2023-03-21T06:14:46.472Z,1010.40
2023-03-21T06:15:47.432Z,1010.37
2023-03-21T06:16:46.446Z,1010.39
2023-03-21T06:17:46.454Z,1010.40
2023-03-21T06:18:46.425Z,1010.40
2023-03-21T06:19:46.395Z,1010.35
2023-03-21T06:20:46.387Z,1010.34
2023-03-21T06:21:46.375Z,1010.35
2023-03-21T06:22:46.398Z,1010.41
2023-03-21T06:23:46.392Z,1010.38
2023-03-21T06:24:46.348Z,1010.39
2023-03-21T06:25:46.327Z,1010.36
2023-03-21T06:26:46.958Z,1010.38
2023-03-21T06:27:46.306Z,1010.43
2023-03-21T06:28:46.287Z,1010.41
2023-03-21T06:29:46.407Z,1010.41
2023-03-21T06:30:46.272Z,1010.42
2023-03-21T06:31:46.308Z,1010.44
2023-03-21T06:32:46.236Z,1010.41
2023-03-21T06:33:46.219Z,1010.44
2023-03-21T06:34:46.225Z,1010.46
2023-03-21T06:35:46.235Z,1010.44
2023-03-21T06:36:46.180Z,1010.50
2023-03-21T06:37:46.183Z,1010.43
2023-03-21T06:38:46.153Z,1010.45
2023-03-21T06:39:46.155Z,1010.42
2023-03-21T06:40:46.130Z,1010.41
2023-03-21T06:41:46.234Z,1010.43
2023-03-21T06:42:46.103Z,1010.45
2023-03-21T06:43:46.093Z,1010.43
2023-03-21T06:44:46.093Z,1010.40
2023-03-21T06:45:46.081Z,1010.36
2023-03-21T06:46:46.093Z,1010.39
2023-03-21T06:47:46.159Z,1010.50
2023-03-21T06:48:46.028Z,1010.50
2023-03-21T06:49:46.023Z,1010.52
2023-03-21T06:50:45.997Z,1010.52
2023-03-21T06:51:46.007Z,1010.51
2023-03-21T06:52:45.978Z,1010.53
2023-03-21T06:53:46.000Z,1010.53
2023-03-21T06:54:45.969Z,1010.51
2023-03-21T06:55:45.939Z,1010.51
2023-03-21T06:56:45.939Z,1010.54
2023-03-21T06:57:45.910Z,1010.58
2023-03-21T06:58:45.904Z,1010.49
2023-03-21T06:59:46.014Z,1010.56
2023-03-21T07:00:45.888Z,1010.51
2023-03-21T07:01:46.811Z,1010.58
2023-03-21T07:02:45.903Z,1010.54
2023-03-21T07:03:45.840Z,1010.51
2023-03-21T07:04:45.896Z,1010.47
2023-03-21T07:05:45.941Z,1010.47
2023-03-21T07:06:45.793Z,1010.50
2023-03-21T07:07:45.793Z,1010.54
2023-03-21T07:08:45.772Z,1010.56
2023-03-21T07:09:45.766Z,1010.55
2023-03-21T07:10:45.739Z,1010.49
2023-03-21T07:11:45.762Z,1010.50
2023-03-21T07:12:45.717Z,1010.52
2023-03-21T07:13:45.718Z,1010.54
2023-03-21T07:14:45.696Z,1010.51
2023-03-21T07:15:45.774Z,1010.51
2023-03-21T07:16:45.708Z,1010.61
2023-03-21T07:17:46.064Z,1010.57
2023-03-21T07:18:45.641Z,1010.51
2023-03-21T07:19:45.632Z,1010.58
2023-03-21T07:20:45.681Z,1010.56
2023-03-21T07:21:45.613Z,1010.63
2023-03-21T07:22:45.623Z,1010.62
2023-03-21T07:23:45.615Z,1010.59
2023-03-21T07:24:48.912Z,1010.53
2023-03-21T07:25:47.080Z,1010.56
2023-03-21T07:26:45.609Z,1010.60
2023-03-21T07:27:45.542Z,1010.58
2023-03-21T07:28:54.330Z,1010.59
2023-03-21T07:29:45.576Z,1010.59
2023-03-21T07:30:45.495Z,1010.61
2023-03-21T07:31:45.543Z,1010.56
2023-03-21T07:32:45.643Z,1010.58
2023-03-21T07:33:45.457Z,1010.60
2023-03-21T07:34:45.443Z,1010.59
2023-03-21T07:35:45.555Z,1010.62
2023-03-21T07:36:45.451Z,1010.56
2023-03-21T07:37:45.412Z,1010.62
2023-03-21T07:38:45.391Z,1010.58
2023-03-21T07:39:45.380Z,1010.62
2023-03-21T07:40:45.360Z,1010.62
2023-03-21T07:41:46.321Z,1010.63
2023-03-21T07:42:45.353Z,1010.61
2023-03-21T07:43:45.391Z,1010.60
2023-03-21T07:44:45.323Z,1010.59
2023-03-21T07:45:45.326Z,1010.63
2023-03-21T07:46:46.245Z,1010.63
2023-03-21T07:47:45.411Z,1010.60
2023-03-21T07:48:45.252Z,1010.68
2023-03-21T07:49:45.260Z,1010.62
2023-03-21T07:50:45.241Z,1010.64
2023-03-21T07:51:45.225Z,1010.67
2023-03-21T07:52:45.195Z,1010.63
2023-03-21T07:53:45.268Z,1010.63
2023-03-21T07:54:45.256Z,1010.65
2023-03-21T07:56:06.458Z,1010.61
2023-03-21T07:56:45.155Z,1010.58
2023-03-21T07:57:45.174Z,1010.55
2023-03-21T07:58:45.158Z,1010.57
2023-03-21T07:59:45.198Z,1010.56
2023-03-21T08:00:45.104Z,1010.60
2023-03-21T08:01:45.083Z,1010.61
2023-03-21T08:02:45.789Z,1010.59
2023-03-21T08:03:45.101Z,1010.60
2023-03-21T08:04:45.049Z,1010.58
2023-03-21T08:05:45.162Z,1010.64
2023-03-21T08:06:45.064Z,1010.66
2023-03-21T08:07:45.005Z,1010.60
2023-03-21T08:08:45.267Z,1010.66
2023-03-21T08:09:45.099Z,1010.62
2023-03-21T08:10:44.972Z,1010.65
2023-03-21T08:11:45.026Z,1010.62
2023-03-21T08:12:45.945Z,1010.64
2023-03-21T08:13:44.934Z,1010.58
2023-03-21T08:14:44.929Z,1010.65
2023-03-21T08:15:44.912Z,1010.60
2023-03-21T08:16:44.938Z,1010.60
2023-03-21T08:17:44.934Z,1010.64
2023-03-21T08:18:44.915Z,1010.67
2023-03-21T08:19:44.897Z,1010.61
2023-03-21T08:20:44.882Z,1010.66
2023-03-21T08:21:44.823Z,1010.63
2023-03-21T08:22:44.819Z,1010.59
2023-03-21T08:23:45.159Z,1010.66
2023-03-21T08:24:44.828Z,1010.62
2023-03-21T08:25:46.236Z,1010.63
2023-03-21T08:26:44.778Z,1010.64
2023-03-21T08:27:46.499Z,1010.59
2023-03-21T08:28:44.793Z,1010.59
2023-03-21T08:29:45.660Z,1010.58
2023-03-21T08:30:44.756Z,1010.58
2023-03-21T08:31:44.703Z,1010.53
2023-03-21T08:32:44.872Z,1010.51
2023-03-21T08:33:44.713Z,1010.52
2023-03-21T08:34:44.672Z,1010.42
2023-03-21T08:35:45.242Z,1010.45
2023-03-21T08:36:44.634Z,1010.44
2023-03-21T08:37:44.654Z,1010.48
2023-03-21T08:38:44.615Z,1010.42
2023-03-21T08:39:45.588Z,1010.48
2023-03-21T08:40:44.586Z,1010.48
2023-03-21T08:41:44.608Z,1010.45
2023-03-21T08:42:44.565Z,1010.47
2023-03-21T08:43:44.716Z,1010.46
2023-03-21T08:44:44.548Z,1010.48
2023-03-21T08:45:44.536Z,1010.45
2023-03-21T08:46:44.593Z,1010.46
2023-03-21T08:47:44.565Z,1010.43
2023-03-21T08:48:44.506Z,1010.45
2023-03-21T08:49:44.489Z,1010.41
2023-03-21T08:50:44.463Z,1010.46
2023-03-21T08:51:44.453Z,1010.44
2023-03-21T08:52:44.433Z,1010.41
2023-03-21T08:53:44.857Z,1010.46
2023-03-21T08:54:44.423Z,1010.45
2023-03-21T08:55:44.404Z,1010.42
2023-03-21T08:56:44.657Z,1010.42
2023-03-21T08:57:44.371Z,1010.47
2023-03-21T08:58:44.371Z,1010.44
2023-03-21T08:59:44.435Z,1010.40
2023-03-21T09:00:44.338Z,1010.42
2023-03-21T09:01:44.395Z,1010.42
2023-03-21T09:02:45.255Z,1010.37
2023-03-21T09:03:44.290Z,1010.40
2023-03-21T09:04:44.286Z,1010.34
2023-03-21T09:05:44.458Z,1010.40
2023-03-21T09:06:44.289Z,1010.34
2023-03-21T09:07:44.243Z,1010.35
2023-03-21T09:08:44.220Z,1010.34
2023-03-21T09:09:45.919Z,1010.31
2023-03-21T09:10:44.200Z,1010.29
2023-03-21T09:11:44.829Z,1010.30
2023-03-21T09:12:44.172Z,1010.31
2023-03-21T09:13:44.155Z,1010.30
2023-03-21T09:14:44.144Z,1010.29
2023-03-21T09:15:44.401Z,1010.31
2023-03-21T09:16:44.145Z,1010.29
2023-03-21T09:17:44.224Z,1010.28
2023-03-21T09:18:44.112Z,1010.33
2023-03-21T09:19:44.092Z,1010.33
2023-03-21T09:20:44.086Z,1010.31
2023-03-21T09:21:45.006Z,1010.29
2023-03-21T09:22:44.047Z,1010.31
2023-03-21T09:23:44.063Z,1010.29
2023-03-21T09:24:44.016Z,1010.27
2023-03-21T09:25:44.008Z,1010.29
2023-03-21T09:26:44.003Z,1010.28
2023-03-21T09:27:43.991Z,1010.25
2023-03-21T09:28:43.975Z,1010.28
2023-03-21T09:29:43.983Z,1010.27
2023-03-21T09:30:43.995Z,1010.29
2023-03-21T09:31:44.115Z,1010.27
2023-03-21T09:32:43.922Z,1010.30
2023-03-21T09:33:43.916Z,1010.25
2023-03-21T09:34:43.892Z,1010.25
2023-03-21T09:35:44.000Z,1010.28
2023-03-21T09:36:43.862Z,1010.25
2023-03-21T09:37:43.842Z,1010.27
2023-03-21T09:38:43.839Z,1010.23
2023-03-21T09:39:43.827Z,1010.22
2023-03-21T09:40:43.840Z,1010.26
2023-03-21T09:41:43.823Z,1010.29
2023-03-21T09:42:43.785Z,1010.19
2023-03-21T09:43:43.796Z,1010.24
2023-03-21T09:44:43.773Z,1010.23
2023-03-21T09:45:43.741Z,1010.25
2023-03-21T09:46:43.810Z,1010.23
2023-03-21T09:47:43.761Z,1010.28
2023-03-21T09:48:55.967Z,1010.26
2023-03-21T09:49:44.769Z,1010.25
2023-03-21T09:50:43.684Z,1010.22
2023-03-21T09:51:43.662Z,1010.20
2023-03-21T09:52:43.677Z,1010.22
2023-03-21T09:53:43.674Z,1010.24
2023-03-21T09:54:43.638Z,1010.24
2023-03-21T09:55:43.608Z,1010.24
2023-03-21T09:56:43.605Z,1010.28
2023-03-21T09:57:43.581Z,1010.22
2023-03-21T09:58:43.570Z,1010.20
2023-03-21T09:59:43.652Z,1010.25
2023-03-21T10:00:43.584Z,1010.27
2023-03-21T10:01:43.531Z,1010.23
2023-03-21T10:02:43.522Z,1010.25
2023-03-21T10:03:43.503Z,1010.24
2023-03-21T10:04:43.538Z,1010.22
2023-03-21T10:05:43.595Z,1010.22
2023-03-21T10:06:44.280Z,1010.20
2023-03-21T10:07:43.458Z,1010.22
2023-03-21T10:08:44.430Z,1010.18
2023-03-21T10:09:43.424Z,1010.14
2023-03-21T10:10:43.431Z,1010.22
2023-03-21T10:11:43.464Z,1010.20
2023-03-21T10:12:43.400Z,1010.16
2023-03-21T10:13:43.393Z,1010.17
2023-03-21T10:14:43.374Z,1010.22
2023-03-21T10:15:43.347Z,1010.20
2023-03-21T10:16:46.136Z,1010.18
2023-03-21T10:17:43.654Z,1010.19
2023-03-21T10:18:43.439Z,1010.19
2023-03-21T10:19:43.853Z,1010.16
2023-03-21T10:20:43.297Z,1010.20
2023-03-21T10:21:59.806Z,1010.19
2023-03-21T10:22:44.286Z,1010.20
2023-03-21T10:23:43.274Z,1010.17
2023-03-21T10:24:43.274Z,1010.11
2023-03-21T10:25:43.579Z,1010.10
2023-03-21T10:26:43.318Z,1010.10
2023-03-21T10:27:43.189Z,1010.09
2023-03-21T10:29:44.232Z,1010.13
2023-03-21T10:30:43.195Z,1010.13
2023-03-21T10:31:43.335Z,1010.12
2023-03-21T10:32:43.369Z,1010.09
2023-03-21T10:33:43.118Z,1010.13
2023-03-21T10:34:44.100Z,1010.13
2023-03-21T10:35:43.983Z,1010.11
2023-03-21T10:36:44.034Z,1010.07
2023-03-21T10:37:43.066Z,1010.10
2023-03-21T10:38:43.062Z,1010.06
2023-03-21T10:39:43.044Z,1010.01
2023-03-21T10:40:43.050Z,1009.98
2023-03-21T10:41:43.044Z,1009.99
2023-03-21T10:42:43.005Z,1009.97
2023-03-21T10:43:42.986Z,1009.92
2023-03-21T10:44:43.947Z,1009.94
2023-03-21T10:45:43.061Z,1009.87
2023-03-21T10:46:43.214Z,1009.91
2023-03-21T10:47:43.279Z,1009.92
2023-03-21T10:48:43.124Z,1009.91
2023-03-21T10:50:06.373Z,1009.92
2023-03-21T10:50:43.906Z,1009.88
2023-03-21T10:51:46.167Z,1009.87
2023-03-21T10:52:43.328Z,1009.82
2023-03-21T10:53:43.832Z,1009.84
2023-03-21T10:54:42.868Z,1009.89
2023-03-21T10:55:42.852Z,1009.81
2023-03-21T10:56:42.822Z,1009.87
2023-03-21T10:57:42.826Z,1009.81
2023-03-21T10:58:46.792Z,1009.82
2023-03-21T10:59:43.735Z,1009.87
2023-03-21T11:00:42.770Z,1009.81
2023-03-21T11:01:42.870Z,1009.82
2023-03-21T11:02:42.766Z,1009.82
2023-03-21T11:03:42.786Z,1009.82
2023-03-21T11:04:42.796Z,1009.87
2023-03-21T11:05:42.797Z,1009.82
2023-03-21T11:06:42.698Z,1009.80
2023-03-21T11:07:42.687Z,1009.83
2023-03-21T11:08:42.818Z,1009.78
2023-03-21T11:09:42.728Z,1009.80
2023-03-21T11:10:42.698Z,1009.78
2023-03-21T11:11:42.633Z,1009.78
2023-03-21T11:12:42.617Z,1009.76
2023-03-21T11:13:42.617Z,1009.74
2023-03-21T11:14:42.583Z,1009.71
2023-03-21T11:15:42.597Z,1009.75
2023-03-21T11:16:42.693Z,1009.68
2023-03-21T11:17:42.554Z,1009.65
2023-03-21T11:18:42.541Z,1009.71
2023-03-21T11:19:42.527Z,1009.65
2023-03-21T11:20:42.540Z,1009.66
2023-03-21T11:21:42.587Z,1009.64
2023-03-21T11:22:42.564Z,1009.61
2023-03-21T11:23:42.576Z,1009.60
2023-03-21T11:24:42.460Z,1009.62
2023-03-21T11:25:42.452Z,1009.58
2023-03-21T11:26:42.435Z,1009.57
2023-03-21T11:27:42.423Z,1009.60
2023-03-21T11:28:43.395Z,1009.52
2023-03-21T11:29:42.456Z,1009.50
2023-03-21T11:30:42.467Z,1009.41
2023-03-21T11:31:42.464Z,1009.42
2023-03-21T11:32:43.316Z,1009.39
2023-03-21T11:33:42.376Z,1009.42
2023-03-21T11:34:42.358Z,1009.35
2023-03-21T11:35:42.377Z,1009.41
2023-03-21T11:36:42.317Z,1009.38
2023-03-21T11:37:42.305Z,1009.46
2023-03-21T11:38:42.291Z,1009.40
2023-03-21T11:39:42.279Z,1009.41
2023-03-21T11:40:42.372Z,1009.38
2023-03-21T11:41:42.256Z,1009.42
2023-03-21T11:42:42.263Z,1009.40
2023-03-21T11:43:42.231Z,1009.35
2023-03-21T11:44:42.208Z,1009.37
2023-03-21T11:45:42.245Z,1009.38
2023-03-21T11:46:42.211Z,1009.39
2023-03-21T11:47:42.342Z,1009.39
2023-03-21T11:48:42.174Z,1009.33
2023-03-21T11:49:42.592Z,1009.39
2023-03-21T11:50:42.281Z,1009.30
2023-03-21T11:51:42.138Z,1009.34
2023-03-21T11:52:42.302Z,1009.43
2023-03-21T11:53:42.108Z,1009.40
2023-03-21T11:54:42.614Z,1009.39
2023-03-21T11:55:42.076Z,1009.27
2023-03-21T11:56:42.055Z,1009.22
2023-03-21T11:57:42.064Z,1009.18
2023-03-21T11:58:43.930Z,1009.16
2023-03-21T11:59:42.020Z,1009.20
2023-03-21T12:00:42.007Z,1009.16
2023-03-21T12:01:42.033Z,1009.16
2023-03-21T12:02:42.013Z,1009.15
2023-03-21T12:03:48.285Z,1009.09
2023-03-21T12:04:43.195Z,1009.08
2023-03-21T12:05:41.976Z,1009.04
2023-03-21T12:06:41.957Z,1009.05
2023-03-21T12:07:41.979Z,1009.01
2023-03-21T12:08:41.898Z,1009.04
2023-03-21T12:09:41.893Z,1009.03
2023-03-21T12:10:41.908Z,1009.08